Time;durP1;ratioP1;P1;durP2;ratioP2;P2;SDS_P1;SDS_P2;PMS_P1;PMS_P2;Temp;Humidity;BMP_temperature;BMP_pressure;BME280_temperature;BME280_humidity;BME280_pressure;Samples;Min_cycle;Max_cycle;Signal;HPM_P1;HPM_P2
2021/11/15 00:02:13;;;;;;;1.00;0.75;;;19.30;67.30;;;;;;6189701;23;19996;-67
2021/11/15 00:04:39;;;;;;;1.10;0.80;;;19.30;67.40;;;;;;6189425;23;20024;-67
2021/11/15 00:07:05;;;;;;;1.35;0.95;;;19.30;67.40;;;;;;6215932;23;20348;-67
2021/11/15 00:09:30;;;;;;;0.85;0.80;;;19.30;67.50;;;;;;6189483;23;20000;-67
2021/11/15 00:11:56;;;;;;;2.22;1.00;;;19.30;67.50;;;;;;6216233;23;20000;-67
2021/11/15 00:14:22;;;;;;;0.88;0.80;;;19.20;67.40;;;;;;6189459;23;20008;-67
2021/11/15 00:16:48;;;;;;;1.35;0.88;;;19.20;67.50;;;;;;6189288;23;20008;-67
2021/11/15 00:19:13;;;;;;;2.15;1.13;;;19.20;67.50;;;;;;6189197;23;20011;-67
2021/11/15 00:21:39;;;;;;;2.72;1.17;;;19.30;67.60;;;;;;6215754;23;19997;-67
2021/11/15 00:24:05;;;;;;;2.25;0.90;;;19.30;67.60;;;;;;6189317;23;20001;-67
2021/11/15 00:26:30;;;;;;;1.73;0.80;;;19.30;67.60;;;;;;6189209;23;20099;-67
2021/11/15 00:28:57;;;;;;;2.03;0.88;;;19.20;67.60;;;;;;6215554;23;20051;-67
2021/11/15 00:31:24;;;;;;;1.02;0.80;;;19.20;67.60;;;;;;6165140;23;20032;-67
2021/11/15 00:33:50;;;;;;;0.77;0.77;;;19.20;67.70;;;;;;6189081;23;20020;-67
2021/11/15 00:36:15;;;;;;;1.33;0.85;;;19.20;67.70;;;;;;6215491;23;20001;-67
2021/11/15 00:38:41;;;;;;;2.28;0.90;;;19.20;67.70;;;;;;6215663;23;20099;-67
2021/11/15 00:41:07;;;;;;;1.58;0.77;;;19.20;67.70;;;;;;6164314;23;20080;-67
2021/11/15 00:43:32;;;;;;;1.17;1.08;;;19.20;67.70;;;;;;6189199;23;20431;-67
2021/11/15 00:45:58;;;;;;;1.95;1.00;;;19.20;67.80;;;;;;6215513;23;20001;-67
2021/11/15 00:48:24;;;;;;;1.27;0.63;;;19.20;67.80;;;;;;6188839;23;20348;-67
2021/11/15 00:50:49;;;;;;;1.58;1.02;;;19.20;67.80;;;;;;6215475;23;20005;-67
2021/11/15 00:53:15;;;;;;;1.25;0.88;;;19.20;67.80;;;;;;6189190;23;20004;-67
2021/11/15 00:55:41;;;;;;;1.48;1.00;;;19.20;67.90;;;;;;6215397;23;20016;-67
2021/11/15 00:58:06;;;;;;;1.05;0.70;;;19.20;67.90;;;;;;6188967;23;20027;-67
2021/11/15 01:00:32;;;;;;;1.10;0.80;;;19.20;67.90;;;;;;6215145;23;20000;-67
2021/11/15 01:02:58;;;;;;;1.95;0.70;;;19.20;68.00;;;;;;6188443;23;20027;-67
2021/11/15 01:05:25;;;;;;;1.50;0.60;;;19.20;68.00;;;;;;6189057;23;20001;-67
2021/11/15 01:07:51;;;;;;;1.63;1.00;;;19.20;68.30;;;;;;6189124;23;20029;-67
2021/11/15 01:10:17;;;;;;;0.93;0.80;;;19.10;68.00;;;;;;6188945;23;20440;-67
2021/11/15 01:12:43;;;;;;;1.88;0.73;;;19.10;68.00;;;;;;6189215;23;20001;-67
2021/11/15 01:15:15;;;;;;;1.00;0.80;;;19.20;68.10;;;;;;6188740;23;20046;-67
2021/11/15 01:17:41;;;;;;;1.30;0.80;;;19.20;68.10;;;;;;6214948;23;20340;-67
2021/11/15 01:20:09;;;;;;;1.35;0.90;;;19.10;68.10;;;;;;6188730;23;19996;-67
2021/11/15 01:22:34;;;;;;;1.90;0.70;;;19.20;68.10;;;;;;6215228;23;20340;-67
2021/11/15 01:25:00;;;;;;;1.42;0.73;;;19.10;68.10;;;;;;6188502;23;20001;-67
2021/11/15 01:27:26;;;;;;;0.85;0.80;;;19.10;68.20;;;;;;6215442;23;20007;-67
2021/11/15 01:29:51;;;;;;;1.92;0.60;;;19.10;68.20;;;;;;6188745;23;19997;-67
2021/11/15 01:32:17;;;;;;;1.05;0.63;;;19.10;68.60;;;;;;6188304;23;20001;-67
2021/11/15 01:34:43;;;;;;;1.00;0.90;;;19.10;68.20;;;;;;6188775;23;20008;-67
2021/11/15 01:37:08;;;;;;;0.95;0.77;;;19.10;68.30;;;;;;6214997;23;20004;-67
2021/11/15 01:39:34;;;;;;;1.15;0.88;;;19.10;68.30;;;;;;6215196;23;20444;-67
2021/11/15 01:42:00;;;;;;;3.40;0.80;;;19.10;68.30;;;;;;6163960;23;20047;-67
2021/11/15 01:44:25;;;;;;;1.52;0.80;;;19.10;68.30;;;;;;6188752;23;20000;-67
2021/11/15 01:46:51;;;;;;;0.82;0.75;;;19.10;68.30;;;;;;6188054;23;20004;-67
2021/11/15 01:49:17;;;;;;;2.80;0.88;;;19.10;68.40;;;;;;6215145;23;20079;-67
2021/11/15 01:51:43;;;;;;;1.73;0.90;;;19.10;68.40;;;;;;6188533;23;20001;-67
2021/11/15 01:54:08;;;;;;;0.60;0.60;;;19.10;68.40;;;;;;6188538;23;20000;-67
2021/11/15 01:56:34;;;;;;;0.93;0.80;;;19.10;68.50;;;;;;6188477;23;20012;-67
2021/11/15 01:59:03;;;;;;;0.50;0.50;;;19.10;68.50;;;;;;6214764;23;19996;-67
2021/11/15 02:01:29;;;;;;;2.90;1.00;;;19.10;68.50;;;;;;6188143;23;20062;-67
2021/11/15 02:03:55;;;;;;;1.88;0.73;;;19.10;68.50;;;;;;6214838;23;19996;-67
2021/11/15 02:06:20;;;;;;;2.92;0.82;;;19.10;68.50;;;;;;6214946;23;20012;-67
2021/11/15 02:08:46;;;;;;;0.90;0.80;;;19.10;69.50;;;;;;6214934;23;20009;-67
2021/11/15 02:11:12;;;;;;;1.00;0.88;;;19.00;68.40;;;;;;6188162;23;20086;-67
2021/11/15 02:13:38;;;;;;;0.82;0.82;;;19.10;68.60;;;;;;6214853;23;20015;-67
2021/11/15 02:16:04;;;;;;;1.45;1.00;;;19.10;68.60;;;;;;6214317;23;20004;-67
2021/11/15 02:18:30;;;;;;;0.73;0.70;;;19.00;68.60;;;;;;6214946;23;19996;-67
2021/11/15 02:21:06;;;;;;;0.90;0.70;;;19.10;68.60;;;;;;6214600;23;20000;-67
2021/11/15 02:23:34;;;;;;;1.52;1.23;;;19.10;68.60;;;;;;6214661;23;20000;-67
2021/11/15 02:26:00;;;;;;;2.35;1.00;;;19.00;68.70;;;;;;6214411;23;20012;-67
2021/11/15 02:28:27;;;;;;;0.82;0.73;;;19.00;68.70;;;;;;6188101;23;20015;-67
2021/11/15 02:30:53;;;;;;;1.42;0.85;;;19.00;68.70;;;;;;6163547;23;20001;-67
2021/11/15 02:33:18;;;;;;;1.80;0.70;;;19.00;68.70;;;;;;6214744;23;20071;-67
2021/11/15 02:35:44;;;;;;;2.05;1.05;;;19.00;68.70;;;;;;6214362;23;20436;-67
2021/11/15 02:38:10;;;;;;;1.40;0.82;;;19.00;68.70;;;;;;6188097;23;20003;-67
2021/11/15 02:40:35;;;;;;;1.73;0.73;;;19.00;68.70;;;;;;6214896;23;20046;-67
2021/11/15 02:43:01;;;;;;;1.60;0.77;;;19.00;68.70;;;;;;6187739;23;20372;-67
2021/11/15 02:45:27;;;;;;;0.70;0.60;;;19.00;68.70;;;;;;6188157;23;20005;-67
2021/11/15 02:47:53;;;;;;;1.77;1.00;;;19.00;68.80;;;;;;6188321;23;20000;-67
2021/11/15 02:50:20;;;;;;;1.90;0.90;;;19.00;68.80;;;;;;6187891;23;20463;-67
2021/11/15 02:52:49;;;;;;;0.70;0.70;;;19.00;68.80;;;;;;6214736;23;20081;-67
2021/11/15 02:55:14;;;;;;;1.33;0.73;;;19.00;68.90;;;;;;6214294;23;20075;-67
2021/11/15 02:57:40;;;;;;;0.95;0.70;;;19.00;68.80;;;;;;6214196;23;20024;-67
2021/11/15 03:00:07;;;;;;;1.10;0.65;;;19.00;68.90;;;;;;6187854;23;19996;-67
2021/11/15 03:02:32;;;;;;;3.63;0.93;;;19.00;69.00;;;;;;6214644;23;20004;-67
2021/11/15 03:04:58;;;;;;;0.85;0.82;;;19.00;69.00;;;;;;6214388;23;20062;-67
2021/11/15 03:07:23;;;;;;;1.63;0.80;;;19.00;69.00;;;;;;6214622;23;20051;-67
2021/11/15 03:09:49;;;;;;;2.28;0.80;;;19.00;69.00;;;;;;6214445;23;20454;-67
2021/11/15 03:12:15;;;;;;;5.13;0.98;;;19.00;69.00;;;;;;6213863;23;19996;-67
2021/11/15 03:14:40;;;;;;;0.93;0.80;;;19.00;69.00;;;;;;6214610;23;20019;-67
2021/11/15 03:17:06;;;;;;;2.67;0.88;;;19.00;69.10;;;;;;6214332;23;20001;-67
2021/11/15 03:19:31;;;;;;;1.20;0.80;;;19.00;69.10;;;;;;6214430;23;20001;-67
2021/11/15 03:21:57;;;;;;;1.13;0.98;;;19.00;69.10;;;;;;6214546;23;20128;-67
2021/11/15 03:24:23;;;;;;;2.25;0.80;;;19.00;69.10;;;;;;6187732;23;20308;-67
2021/11/15 03:26:48;;;;;;;1.27;0.85;;;18.90;69.10;;;;;;6215255;23;20016;-67
2021/11/15 03:29:14;;;;;;;2.03;0.88;;;19.00;69.10;;;;;;6189333;23;20054;-67
2021/11/15 03:31:40;;;;;;;2.25;0.68;;;19.00;69.20;;;;;;6215924;23;20058;-67
2021/11/15 03:34:11;;;;;;;1.63;0.85;;;19.00;69.20;;;;;;6188607;23;20012;-67
2021/11/15 03:36:37;;;;;;;0.88;0.80;;;19.00;69.30;;;;;;6215140;23;20008;-67
2021/11/15 03:39:04;;;;;;;1.40;0.82;;;19.00;69.30;;;;;;6188822;23;20000;-67
2021/11/15 03:41:31;;;;;;;3.38;0.80;;;19.00;69.30;;;;;;6188563;23;20007;-67
2021/11/15 03:43:57;;;;;;;1.95;1.17;;;19.00;69.20;;;;;;6188994;23;20007;-67
2021/11/15 03:46:23;;;;;;;1.40;1.00;;;18.90;69.20;;;;;;6215452;23;20008;-67
2021/11/15 03:48:50;;;;;;;1.38;0.77;;;19.00;69.30;;;;;;6188916;23;20339;-67
2021/11/15 03:51:17;;;;;;;2.08;0.73;;;19.00;69.30;;;;;;6215202;23;20007;-67
2021/11/15 03:53:43;;;;;;;1.65;1.00;;;19.00;69.30;;;;;;6164313;23;20007;-67
2021/11/15 03:56:12;;;;;;;4.03;1.20;;;19.00;69.30;;;;;;6188119;23;20009;-67
2021/11/15 03:58:39;;;;;;;2.22;1.00;;;19.00;69.30;;;;;;6188573;23;20001;-67
2021/11/15 04:01:05;;;;;;;1.60;0.77;;;19.00;69.30;;;;;;6163811;23;20340;-67
2021/11/15 04:03:32;;;;;;;1.65;0.95;;;19.00;69.40;;;;;;6188478;23;20068;-67
2021/11/15 04:06:08;;;;;;;3.40;1.00;;;18.90;69.30;;;;;;6189021;23;20004;-67
2021/11/15 04:08:34;;;;;;;0.73;0.73;;;18.90;69.30;;;;;;6188744;23;20059;-67
2021/11/15 04:11:00;;;;;;;1.95;0.73;;;18.90;69.30;;;;;;6214517;23;20391;-67
2021/11/15 04:13:29;;;;;;;0.85;0.70;;;18.90;69.40;;;;;;6214728;23;20080;-67
2021/11/15 04:15:57;;;;;;;1.30;0.75;;;19.00;69.50;;;;;;6188697;23;20001;-67
2021/11/15 04:18:24;;;;;;;0.80;0.80;;;18.90;69.40;;;;;;6214564;23;20000;-67
2021/11/15 04:20:51;;;;;;;2.05;0.93;;;18.90;69.40;;;;;;6163930;23;20001;-67
2021/11/15 04:23:16;;;;;;;1.42;0.80;;;18.90;69.50;;;;;;6189137;23;20068;-67
2021/11/15 04:25:42;;;;;;;1.40;0.80;;;18.90;69.50;;;;;;6163907;23;20032;-67
2021/11/15 04:28:08;;;;;;;1.27;0.90;;;18.90;69.40;;;;;;6215569;23;20066;-67
2021/11/15 04:30:34;;;;;;;2.50;0.80;;;18.90;69.50;;;;;;6189137;23;20001;-67
2021/11/15 04:33:00;;;;;;;0.80;0.80;;;18.90;69.50;;;;;;6188887;23;20013;-67
2021/11/15 04:35:26;;;;;;;1.80;1.08;;;18.90;69.50;;;;;;6187364;23;20011;-67
2021/11/15 04:37:52;;;;;;;2.35;0.73;;;18.90;69.50;;;;;;6164728;23;20000;-67
2021/11/15 04:40:17;;;;;;;1.40;0.90;;;18.90;69.60;;;;;;6215195;23;20083;-67
2021/11/15 04:42:43;;;;;;;1.25;0.60;;;18.90;69.50;;;;;;6215764;23;20051;-67
2021/11/15 04:45:09;;;;;;;2.28;1.05;;;18.90;69.50;;;;;;6164338;23;20348;-67
2021/11/15 04:47:35;;;;;;;1.63;0.70;;;18.90;69.60;;;;;;6189123;23;20063;-67
2021/11/15 04:50:01;;;;;;;0.93;0.82;;;18.90;69.60;;;;;;6189308;23;20448;-67
2021/11/15 04:52:27;;;;;;;1.52;0.80;;;18.90;69.60;;;;;;6215510;23;20008;-67
2021/11/15 04:54:53;;;;;;;0.85;0.85;;;18.90;69.60;;;;;;6188890;23;20076;-67
2021/11/15 04:57:18;;;;;;;1.30;0.90;;;18.90;69.60;;;;;;6215375;23;20090;-67
2021/11/15 04:59:45;;;;;;;1.25;0.68;;;18.90;69.60;;;;;;6164260;23;20001;-67
2021/11/15 05:02:11;;;;;;;0.80;0.80;;;18.90;69.60;;;;;;6189130;23;20436;-67
2021/11/15 05:04:37;;;;;;;0.68;0.68;;;18.90;69.60;;;;;;6215637;23;20003;-67
2021/11/15 05:07:02;;;;;;;1.95;0.80;;;18.90;69.70;;;;;;6215449;23;20440;-67
2021/11/15 05:09:28;;;;;;;0.75;0.60;;;18.80;69.60;;;;;;6215330;23;20009;-67
2021/11/15 05:11:53;;;;;;;1.15;1.05;;;18.80;69.60;;;;;;6215411;23;20004;-67
2021/11/15 05:14:19;;;;;;;1.15;0.95;;;18.80;69.60;;;;;;6215257;23;20447;-67
2021/11/15 05:16:45;;;;;;;1.23;0.90;;;18.80;69.70;;;;;;6215349;23;20001;-67
2021/11/15 05:19:10;;;;;;;1.08;0.90;;;18.80;69.70;;;;;;6215375;23;19997;-67
2021/11/15 05:21:36;;;;;;;0.98;0.88;;;18.80;69.70;;;;;;6215158;23;20004;-67
2021/11/15 05:24:02;;;;;;;1.45;0.80;;;18.80;69.70;;;;;;6188557;23;20388;-67
2021/11/15 05:26:27;;;;;;;1.15;0.80;;;18.80;69.70;;;;;;6163580;23;20364;-67
2021/11/15 05:28:53;;;;;;;1.13;0.82;;;18.80;69.80;;;;;;6163962;23;20001;-67
2021/11/15 05:31:19;;;;;;;0.75;0.65;;;18.80;69.80;;;;;;6188730;23;20559;-67
2021/11/15 05:33:44;;;;;;;1.67;0.98;;;18.80;69.80;;;;;;6215134;23;20024;-67
2021/11/15 05:36:10;;;;;;;0.93;0.77;;;18.80;69.70;;;;;;6214948;23;20000;-67
2021/11/15 05:38:35;;;;;;;1.50;0.80;;;18.80;69.80;;;;;;6214799;23;20024;-67
2021/11/15 05:41:01;;;;;;;1.65;1.20;;;18.80;69.80;;;;;;6215081;23;20007;-67
2021/11/15 05:43:27;;;;;;;1.17;0.88;;;18.80;70.00;;;;;;6215048;23;20023;-67
2021/11/15 05:45:53;;;;;;;1.73;0.93;;;18.80;69.80;;;;;;6214994;23;20344;-67
2021/11/15 05:48:18;;;;;;;0.80;0.80;;;18.80;69.90;;;;;;6188530;23;20012;-67
2021/11/15 05:50:44;;;;;;;0.82;0.70;;;18.80;69.90;;;;;;6188698;23;20431;-67
2021/11/15 05:53:10;;;;;;;2.58;0.70;;;18.80;69.90;;;;;;6214884;23;20004;-67
2021/11/15 05:55:36;;;;;;;0.70;0.70;;;18.80;69.90;;;;;;6214700;23;20000;-67
2021/11/15 05:58:01;;;;;;;1.20;0.90;;;18.80;69.90;;;;;;6188631;23;20024;-67
2021/11/15 06:00:29;;;;;;;1.90;0.85;;;18.80;69.90;;;;;;6214846;23;19997;-67
2021/11/15 06:02:55;;;;;;;2.25;0.80;;;18.80;69.90;;;;;;6188787;23;20024;-67
2021/11/15 06:05:22;;;;;;;1.00;0.90;;;18.80;69.90;;;;;;6214949;23;20004;-67
2021/11/15 06:07:47;;;;;;;1.42;0.80;;;18.80;69.90;;;;;;6214459;23;20129;-67
2021/11/15 06:10:13;;;;;;;2.85;0.80;;;18.80;70.00;;;;;;6213113;23;20036;-67
2021/11/15 06:12:39;;;;;;;1.48;0.85;;;18.80;70.10;;;;;;6213702;23;20096;-67
2021/11/15 06:15:06;;;;;;;0.65;0.55;;;18.70;70.00;;;;;;6187252;23;20028;-67
2021/11/15 06:17:32;;;;;;;1.80;1.08;;;18.80;70.00;;;;;;6214787;23;20028;-67
2021/11/15 06:19:57;;;;;;;1.42;0.63;;;18.80;70.10;;;;;;6215454;23;19996;-67
2021/11/15 06:22:23;;;;;;;1.92;1.00;;;18.80;70.20;;;;;;6214703;23;20005;-67
2021/11/15 06:24:49;;;;;;;3.35;0.85;;;18.80;70.10;;;;;;6215010;23;20036;-67
2021/11/15 06:27:15;;;;;;;1.38;0.90;;;18.70;70.10;;;;;;6188592;23;20054;-67
2021/11/15 06:29:41;;;;;;;1.40;0.75;;;18.70;70.10;;;;;;6163930;23;20004;-67
2021/11/15 06:32:08;;;;;;;0.70;0.70;;;18.70;70.10;;;;;;6214145;23;20440;-67
2021/11/15 06:34:34;;;;;;;1.10;0.70;;;18.80;70.20;;;;;;6214514;23;20005;-67
2021/11/15 06:36:59;;;;;;;0.80;0.80;;;18.70;70.10;;;;;;6214032;23;20063;-67
2021/11/15 06:39:26;;;;;;;1.30;0.80;;;18.70;70.10;;;;;;6188022;23;20000;-67
2021/11/15 06:41:55;;;;;;;1.23;0.80;;;18.70;70.20;;;;;;6214535;23;20007;-67
2021/11/15 06:44:21;;;;;;;0.73;0.73;;;18.70;70.20;;;;;;6214529;23;20443;-67
2021/11/15 06:46:47;;;;;;;1.88;0.80;;;18.70;70.20;;;;;;6214418;23;20427;-67
2021/11/15 06:49:13;;;;;;;1.13;0.60;;;18.70;70.20;;;;;;6188189;23;20005;-67
2021/11/15 06:51:39;;;;;;;1.58;0.70;;;18.70;70.20;;;;;;6213875;23;20032;-67
2021/11/15 06:54:05;;;;;;;0.70;0.60;;;18.70;70.20;;;;;;6163324;23;20004;-67
2021/11/15 06:56:31;;;;;;;0.90;0.68;;;18.70;70.30;;;;;;6214218;23;20084;-67
2021/11/15 06:58:56;;;;;;;1.40;0.95;;;18.70;70.30;;;;;;6189146;23;20005;-67
2021/11/15 07:01:22;;;;;;;1.02;0.95;;;18.70;70.30;;;;;;6190356;23;19996;-67
2021/11/15 07:03:48;;;;;;;3.40;0.88;;;18.70;70.40;;;;;;6190478;23;20004;-67
2021/11/15 07:06:14;;;;;;;0.85;0.60;;;18.70;70.40;;;;;;6190099;23;20004;-67
2021/11/15 07:08:40;;;;;;;1.00;0.80;;;18.70;70.40;;;;;;6187564;23;20423;-67
2021/11/15 07:11:06;;;;;;;0.70;0.70;;;18.70;70.30;;;;;;6215779;23;20011;-67
2021/11/15 07:13:31;;;;;;;1.42;0.70;;;18.70;70.30;;;;;;6215609;23;20005;-67
2021/11/15 07:15:57;;;;;;;2.72;0.70;;;18.70;70.20;;;;;;6215930;23;20008;-67
2021/11/15 07:18:23;;;;;;;0.85;0.70;;;18.70;70.20;;;;;;6215658;23;20000;-67
2021/11/15 07:20:48;;;;;;;1.20;0.65;;;18.70;70.30;;;;;;6189039;23;20002;-67
2021/11/15 07:23:14;;;;;;;1.38;0.90;;;18.70;70.30;;;;;;6164754;23;20436;-67
2021/11/15 07:25:40;;;;;;;0.68;0.68;;;18.70;70.20;;;;;;6188829;23;20036;-67
2021/11/15 07:28:05;;;;;;;0.80;0.80;;;18.70;70.20;;;;;;6189563;23;20494;-67
2021/11/15 07:30:31;;;;;;;0.60;0.60;;;18.80;70.20;;;;;;6189439;23;20001;-67
2021/11/15 07:32:57;;;;;;;0.70;0.70;;;18.70;70.20;;;;;;6189165;23;20008;-67
2021/11/15 07:35:23;;;;;;;0.65;0.60;;;18.80;70.20;;;;;;6215889;23;20080;-67
2021/11/15 07:37:48;;;;;;;1.48;0.80;;;18.80;70.20;;;;;;6188494;23;20008;-67
2021/11/15 07:40:15;;;;;;;0.70;0.70;;;18.80;70.20;;;;;;6214421;23;20027;-67
2021/11/15 07:42:41;;;;;;;0.65;0.60;;;18.80;70.10;;;;;;6187460;23;20391;-67
2021/11/15 07:45:08;;;;;;;1.00;0.70;;;18.80;70.20;;;;;;6214665;23;20000;-67
2021/11/15 07:47:35;;;;;;;0.82;0.60;;;18.80;70.10;;;;;;6213410;23;20426;-67
2021/11/15 07:50:01;;;;;;;0.90;0.90;;;18.80;70.10;;;;;;6188410;23;20039;-67
2021/11/15 07:52:27;;;;;;;1.00;0.80;;;18.80;70.10;;;;;;6214484;23;20008;-67
2021/11/15 07:54:53;;;;;;;0.70;0.70;;;18.80;70.00;;;;;;6214448;23;20000;-67
2021/11/15 07:57:18;;;;;;;3.42;0.90;;;18.80;70.10;;;;;;6214477;23;20344;-67
2021/11/15 07:59:44;;;;;;;5.88;1.30;;;18.80;70.00;;;;;;6187880;23;19997;-67
2021/11/15 08:02:11;;;;;;;4.82;1.70;;;18.80;70.10;;;;;;6212986;23;20314;-67
2021/11/15 08:04:37;;;;;;;12.07;1.85;;;18.80;70.00;;;;;;6214344;23;20322;-67
2021/11/15 08:07:03;;;;;;;3.22;1.60;;;18.80;70.10;;;;;;6188313;23;20397;-67
2021/11/15 08:09:29;;;;;;;8.35;2.15;;;18.90;70.20;;;;;;6214596;23;20189;-67
2021/11/15 08:12:03;;;;;;;3.83;1.58;;;18.90;70.10;;;;;;6214590;23;20448;-67
2021/11/15 08:14:29;;;;;;;5.68;1.48;;;18.90;70.10;;;;;;6188401;23;20008;-67
2021/11/15 08:16:55;;;;;;;7.47;2.05;;;18.90;70.10;;;;;;6215227;23;20138;-67
2021/11/15 08:19:20;;;;;;;5.68;1.73;;;18.90;70.00;;;;;;6215934;23;19996;-67
2021/11/15 08:21:47;;;;;;;9.60;1.70;;;18.90;70.00;;;;;;6215660;23;20001;-67
2021/11/15 08:24:25;;;;;;;4.82;1.50;;;18.90;70.10;;;;;;6215723;23;20024;-67
2021/11/15 08:27:03;;;;;;;5.68;1.80;;;18.90;70.00;;;;;;6215412;23;20071;-67
2021/11/15 08:29:31;;;;;;;3.03;1.83;;;19.00;70.10;;;;;;6189720;23;20005;-66
2021/11/15 08:31:59;;;;;;;8.48;1.60;;;18.90;70.00;;;;;;6215243;23;20036;-67
2021/11/15 08:34:25;;;;;;;3.72;1.42;;;18.90;70.00;;;;;;6164804;23;20001;-67
2021/11/15 08:36:50;;;;;;;3.65;1.30;;;19.00;70.10;;;;;;6189112;23;20063;-67
2021/11/15 08:39:23;;;;;;;7.88;1.67;;;18.90;70.10;;;;;;6189389;23;20000;-67
2021/11/15 08:41:51;;;;;;;7.38;1.52;;;19.00;70.00;;;;;;6215654;23;20011;-67
2021/11/15 08:44:18;;;;;;;5.60;1.90;;;18.90;70.00;;;;;;6189065;23;20336;-67
2021/11/15 08:46:45;;;;;;;3.80;1.70;;;19.00;70.10;;;;;;6215305;23;20000;-67
2021/11/15 08:49:12;;;;;;;6.15;1.73;;;18.90;70.00;;;;;;6165025;23;20004;-67
2021/11/15 08:51:38;;;;;;;4.25;1.48;;;19.00;70.00;;;;;;6189235;23;20001;-67
2021/11/15 08:54:05;;;;;;;7.03;1.67;;;19.00;70.00;;;;;;6215513;23;20004;-67
2021/11/15 08:56:30;;;;;;;4.25;1.40;;;18.90;70.00;;;;;;6189233;23;20435;-67
2021/11/15 08:58:56;;;;;;;3.22;1.30;;;19.00;71.00;;;;;;6188918;23;19996;-67
2021/11/15 09:01:23;;;;;;;4.28;1.40;;;18.90;69.90;;;;;;6163941;23;20080;-67
2021/11/15 09:03:51;;;;;;;6.28;1.83;;;18.90;69.90;;;;;;6164536;23;20008;-67
2021/11/15 09:06:17;;;;;;;2.55;1.25;;;19.00;70.00;;;;;;6189446;23;20008;-67
2021/11/15 09:08:43;;;;;;;4.03;1.45;;;19.00;70.00;;;;;;6189228;23;20008;-66
2021/11/15 09:11:09;;;;;;;4.10;1.70;;;19.00;70.00;;;;;;6215187;23;20478;-67
2021/11/15 09:13:35;;;;;;;6.75;2.00;;;19.00;70.00;;;;;;6188818;23;20028;-67
2021/11/15 09:16:01;;;;;;;2.13;1.33;;;19.00;70.00;;;;;;6188346;23;20001;-67
2021/11/15 09:18:27;;;;;;;7.05;2.00;;;19.00;69.90;;;;;;6215308;23;20419;-67
2021/11/15 09:20:53;;;;;;;2.67;1.60;;;19.00;69.90;;;;;;6139214;23;20011;-67
2021/11/15 09:23:19;;;;;;;2.00;1.75;;;19.00;69.90;;;;;;6188918;23;20031;-67
2021/11/15 09:25:45;;;;;;;3.17;1.42;;;19.00;69.90;;;;;;6188555;23;20024;-67
2021/11/15 09:28:11;;;;;;;4.07;1.38;;;19.00;69.90;;;;;;6188773;23;20317;-67
2021/11/15 09:30:37;;;;;;;5.68;1.70;;;19.00;69.90;;;;;;6188788;23;20001;-67
2021/11/15 09:33:04;;;;;;;2.35;1.45;;;19.00;69.90;;;;;;6215139;23;20001;-67
2021/11/15 09:35:29;;;;;;;3.95;1.50;;;19.00;70.00;;;;;;6188646;23;20036;-67
2021/11/15 09:37:55;;;;;;;2.20;1.70;;;19.00;69.90;;;;;;6215124;23;20051;-67
2021/11/15 09:40:20;;;;;;;3.47;1.60;;;19.00;69.90;;;;;;6215115;23;19997;-67
2021/11/15 09:42:47;;;;;;;4.68;1.52;;;19.00;69.90;;;;;;6188833;23;20001;-67
2021/11/15 09:45:12;;;;;;;2.38;1.55;;;19.00;69.90;;;;;;6188305;23;20079;-67
2021/11/15 09:47:39;;;;;;;4.60;1.60;;;19.00;69.80;;;;;;6188620;23;20035;-67
2021/11/15 09:50:07;;;;;;;3.47;1.60;;;19.00;69.80;;;;;;6188811;23;19997;-67
2021/11/15 09:52:33;;;;;;;2.45;1.63;;;19.00;69.90;;;;;;6215159;23;19997;-67
2021/11/15 09:55:00;;;;;;;4.47;1.80;;;19.00;69.80;;;;;;6214939;23;20008;-67
2021/11/15 09:57:25;;;;;;;5.50;1.70;;;19.00;69.80;;;;;;6188661;23;20005;-67
2021/11/15 09:59:51;;;;;;;2.45;1.48;;;19.00;69.80;;;;;;6188103;23;20410;-67
2021/11/15 10:02:17;;;;;;;3.08;1.60;;;19.00;69.80;;;;;;6188483;23;20063;-67
2021/11/15 10:04:42;;;;;;;3.05;1.40;;;19.00;69.80;;;;;;6215051;23;20439;-67
2021/11/15 10:07:08;;;;;;;3.42;1.50;;;19.00;69.80;;;;;;6214823;23;20011;-67
2021/11/15 10:09:35;;;;;;;2.22;1.50;;;19.00;69.80;;;;;;6214893;23;20008;-67
2021/11/15 10:12:12;;;;;;;2.60;1.52;;;19.00;69.80;;;;;;6188368;23;20004;-67
2021/11/15 10:15:04;;;;;;;3.47;1.45;;;19.00;69.80;;;;;;6188154;23;20012;-67
2021/11/15 10:17:45;;;;;;;3.95;1.45;;;19.00;69.70;;;;;;6215015;23;20008;-67
2021/11/15 10:20:11;;;;;;;2.42;1.65;;;19.00;69.80;;;;;;6214654;23;20003;-67
2021/11/15 10:22:37;;;;;;;2.67;1.60;;;19.00;69.90;;;;;;6188500;23;20079;-67
2021/11/15 10:25:04;;;;;;;3.35;1.80;;;19.00;69.80;;;;;;6188041;23;20000;-67
2021/11/15 10:27:30;;;;;;;1.92;1.60;;;19.00;69.80;;;;;;6214317;23;20016;-67
2021/11/15 10:29:56;;;;;;;4.20;1.77;;;19.00;69.80;;;;;;6188399;23;20001;-67
2021/11/15 10:32:29;;;;;;;2.58;1.80;;;19.00;69.80;;;;;;6214703;23;20001;-67
2021/11/15 10:34:57;;;;;;;3.17;1.80;;;19.00;69.80;;;;;;6188973;23;20008;-67
2021/11/15 10:37:33;;;;;;;2.80;1.75;;;19.00;69.80;;;;;;6188472;23;20336;-67
2021/11/15 10:40:09;;;;;;;1.60;1.48;;;19.00;69.80;;;;;;6188156;23;19996;-67
2021/11/15 10:42:37;;;;;;;2.70;1.70;;;19.00;69.80;;;;;;6214437;23;19997;-67
2021/11/15 10:45:10;;;;;;;1.90;1.65;;;19.00;69.80;;;;;;6214456;23;20047;-67
2021/11/15 10:47:50;;;;;;;2.03;1.65;;;19.00;69.80;;;;;;6214754;23;20035;-67
2021/11/15 10:50:30;;;;;;;4.63;1.60;;;19.00;69.80;;;;;;6187923;23;20412;-67
2021/11/15 10:53:11;;;;;;;3.10;1.55;;;19.00;69.80;;;;;;6165575;23;20036;-67
2021/11/15 10:55:45;;;;;;;2.00;1.55;;;19.00;69.70;;;;;;6214534;23;20005;-67
2021/11/15 10:58:14;;;;;;;1.33;1.23;;;19.00;69.80;;;;;;6188496;23;20028;-67
2021/11/15 11:00:44;;;;;;;1.92;1.73;;;19.00;69.80;;;;;;6188486;23;20001;-67
2021/11/15 11:03:14;;;;;;;3.05;1.63;;;19.00;69.80;;;;;;6188759;23;20028;-67
2021/11/15 11:05:41;;;;;;;1.73;1.50;;;19.00;69.80;;;;;;6188883;23;20080;-67
2021/11/15 11:08:17;;;;;;;3.50;1.80;;;19.00;69.80;;;;;;6214434;23;20444;-67
2021/11/15 11:10:55;;;;;;;1.67;1.50;;;19.00;69.80;;;;;;6214224;23;20347;-67
2021/11/15 11:13:25;;;;;;;2.85;1.52;;;19.00;69.70;;;;;;6188199;23;20001;-67
2021/11/15 11:15:54;;;;;;;1.83;1.60;;;19.00;69.80;;;;;;6188762;23;20004;-67
2021/11/15 11:21:30;;;;;;;2.65;1.80;;;19.00;69.70;;;;;;6214261;23;20092;-67
2021/11/15 11:26:33;;;;;;;1.70;1.58;;;19.00;69.80;;;;;;6187226;23;20020;-67
2021/11/15 11:29:11;;;;;;;2.33;1.75;;;19.00;69.80;;;;;;6214396;23;20092;-67
2021/11/15 11:31:38;;;;;;;1.52;1.40;;;19.00;69.70;;;;;;6189201;23;20408;-67
2021/11/15 11:34:04;;;;;;;2.10;1.63;;;19.00;69.80;;;;;;6163364;23;20007;-67
2021/11/15 11:36:29;;;;;;;2.03;1.60;;;19.00;69.70;;;;;;6213268;23;20005;-67
2021/11/15 11:38:55;;;;;;;2.53;1.50;;;19.00;69.80;;;;;;6214381;23;20001;-67
2021/11/15 11:41:21;;;;;;;1.95;1.75;;;19.00;69.70;;;;;;6162742;23;20321;-67
2021/11/15 11:43:48;;;;;;;1.92;1.70;;;19.00;69.70;;;;;;6214480;23;20003;-67
2021/11/15 11:46:17;;;;;;;2.75;1.40;;;19.00;69.70;;;;;;6164778;23;20000;-67
2021/11/15 11:48:47;;;;;;;2.25;1.55;;;19.00;69.70;;;;;;6190683;23;20059;-67
2021/11/15 11:51:12;;;;;;;2.10;1.60;;;19.00;69.60;;;;;;6165099;23;20444;-67
2021/11/15 11:53:38;;;;;;;2.35;1.80;;;19.00;69.70;;;;;;6189666;23;20008;-67
2021/11/15 11:56:14;;;;;;;1.60;1.50;;;19.00;69.60;;;;;;6215575;23;20432;-67
2021/11/15 11:58:42;;;;;;;3.08;1.65;;;19.00;69.60;;;;;;6189730;23;20031;-67
2021/11/15 12:01:17;;;;;;;3.13;1.90;;;19.00;69.70;;;;;;6215918;23;20007;-67
2021/11/15 12:04:08;;;;;;;1.95;1.80;;;19.00;69.70;;;;;;6189552;23;20079;-67
2021/11/15 12:06:34;;;;;;;2.17;1.85;;;19.00;69.50;;;;;;6202404;23;20039;-67
2021/11/15 12:09:00;;;;;;;2.40;1.80;;;19.00;69.70;;;;;;6189264;23;20348;-67
2021/11/15 12:11:30;;;;;;;1.95;1.80;;;19.00;69.70;;;;;;6215811;23;20005;-67
2021/11/15 12:13:56;;;;;;;2.30;1.83;;;19.00;69.60;;;;;;6216103;23;20083;-67
2021/11/15 12:16:23;;;;;;;1.45;1.33;;;19.00;69.60;;;;;;6164370;23;20004;-67
2021/11/15 12:18:59;;;;;;;1.70;1.60;;;19.00;69.60;;;;;;6189810;23;20344;-67
2021/11/15 12:21:32;;;;;;;1.50;1.40;;;19.00;69.60;;;;;;6189390;23;20032;-67
2021/11/15 12:24:04;;;;;;;2.45;1.60;;;19.00;69.60;;;;;;6189151;23;20000;-67
2021/11/15 12:26:39;;;;;;;2.03;1.70;;;19.00;69.60;;;;;;6215568;23;20016;-66
2021/11/15 12:29:27;;;;;;;2.45;1.90;;;19.00;69.60;;;;;;6189288;23;20477;-67
2021/11/15 12:32:03;;;;;;;3.13;2.00;;;19.00;69.50;;;;;;6215870;23;20004;-67
2021/11/15 12:34:36;;;;;;;2.25;1.80;;;19.00;69.70;;;;;;6189021;23;20004;-67
2021/11/15 12:37:08;;;;;;;2.53;1.77;;;19.00;69.70;;;;;;6165320;23;20502;-67
2021/11/15 12:39:44;;;;;;;1.90;1.55;;;19.00;69.70;;;;;;6162401;23;20005;-66
2021/11/15 12:42:29;;;;;;;2.63;1.95;;;19.00;69.60;;;;;;6165880;23;20054;-67
2021/11/15 12:45:14;;;;;;;;;;;19.00;69.60;;;;;;6190628;23;20054;-67
2021/11/15 12:47:45;;;;;;;1.70;1.60;;;19.00;69.60;;;;;;6215645;23;19908;-67
2021/11/15 12:50:20;;;;;;;2.78;1.75;;;19.00;69.90;;;;;;6215689;23;20004;-67
2021/11/15 12:53:16;;;;;;;2.00;1.77;;;19.00;69.90;;;;;;6214098;23;20479;-67
2021/11/15 12:55:47;;;;;;;1.73;1.50;;;19.00;69.60;;;;;;6211124;23;20011;-67